createdAt,value
2019-03-25T00:02:04.098Z,1.30
2019-03-25T00:04:34.230Z,1.20
2019-03-25T00:07:04.403Z,1.70
2019-03-25T00:09:34.554Z,1.50
2019-03-25T00:12:04.835Z,1.47
2019-03-25T00:14:34.979Z,1.60
2019-03-25T00:17:05.228Z,1.90
2019-03-25T00:19:35.383Z,1.33
2019-03-25T00:22:05.542Z,1.30
2019-03-25T00:24:38.936Z,1.50
2019-03-25T00:27:07.513Z,1.90
2019-03-25T00:29:37.697Z,1.23
2019-03-25T00:32:07.883Z,1.57
2019-03-25T00:34:38.058Z,1.40
2019-03-25T00:37:08.239Z,1.67
2019-03-25T00:39:38.404Z,1.57
2019-03-25T00:42:08.569Z,1.70
2019-03-25T00:44:38.913Z,1.77
2019-03-25T00:47:09.073Z,1.23
2019-03-25T00:49:39.209Z,1.87
2019-03-25T00:52:09.387Z,1.50
2019-03-25T00:54:49.652Z,1.47
2019-03-25T00:57:11.363Z,1.20
2019-03-25T00:59:41.525Z,1.40
2019-03-25T01:02:11.700Z,1.70
2019-03-25T01:04:41.844Z,1.43
2019-03-25T01:07:12.033Z,1.43
2019-03-25T01:09:42.184Z,1.40
2019-03-25T01:12:12.359Z,1.50
2019-03-25T01:14:42.517Z,1.50
2019-03-25T01:17:12.713Z,1.33
2019-03-25T01:19:42.878Z,1.50
2019-03-25T01:22:13.062Z,1.67
2019-03-25T01:24:43.203Z,1.30
2019-03-25T01:27:13.392Z,1.47
2019-03-25T01:29:43.568Z,1.47
2019-03-25T01:32:13.732Z,1.80
2019-03-25T01:34:43.894Z,1.60
2019-03-25T01:37:14.061Z,1.30
2019-03-25T01:39:44.219Z,1.30
2019-03-25T01:42:14.402Z,1.57
2019-03-25T01:44:44.582Z,1.47
2019-03-25T01:47:14.740Z,1.50
2019-03-25T01:49:44.922Z,1.97
2019-03-25T01:52:15.090Z,1.47
2019-03-25T01:54:45.285Z,1.57
2019-03-25T01:57:15.472Z,1.43
2019-03-25T01:59:45.641Z,1.60
2019-03-25T02:02:15.776Z,1.80
2019-03-25T02:04:45.946Z,1.87
2019-03-25T02:07:16.101Z,1.30
2019-03-25T02:09:46.273Z,1.27
2019-03-25T02:12:16.432Z,1.60
2019-03-25T02:14:46.632Z,1.50
2019-03-25T02:17:16.777Z,1.43
2019-03-25T02:19:46.927Z,1.40
2019-03-25T02:22:17.081Z,1.60
2019-03-25T02:24:47.249Z,1.67
2019-03-25T02:27:17.379Z,1.50
2019-03-25T02:29:47.589Z,1.63
2019-03-25T02:32:17.753Z,1.90
2019-03-25T02:34:47.918Z,1.50
2019-03-25T02:37:18.071Z,1.50
2019-03-25T02:39:48.256Z,1.67
2019-03-25T02:42:18.414Z,1.70
2019-03-25T02:44:48.581Z,1.57
2019-03-25T02:47:18.738Z,1.60
2019-03-25T02:49:48.896Z,1.90
2019-03-25T02:52:19.178Z,1.53
2019-03-25T02:54:49.366Z,1.63
2019-03-25T02:57:19.498Z,1.47
2019-03-25T02:59:49.688Z,1.90
2019-03-25T03:02:19.839Z,1.30
2019-03-25T03:04:50.039Z,1.73
2019-03-25T03:07:20.213Z,1.50
2019-03-25T03:09:50.384Z,1.73
2019-03-25T03:12:20.542Z,1.37
2019-03-25T03:14:50.713Z,1.50
2019-03-25T03:17:20.937Z,1.47
2019-03-25T03:19:51.056Z,1.93
2019-03-25T03:22:21.237Z,1.80
2019-03-25T03:24:51.400Z,2.00
2019-03-25T03:27:21.568Z,1.40
2019-03-25T03:29:51.729Z,1.77
2019-03-25T03:32:21.883Z,1.50
2019-03-25T03:34:52.081Z,1.90
2019-03-25T03:37:22.220Z,1.83
2019-03-25T03:39:52.382Z,1.83
2019-03-25T03:42:22.745Z,2.20
2019-03-25T03:44:52.851Z,1.77
2019-03-25T03:47:23.006Z,2.03
2019-03-25T03:49:53.154Z,1.97
2019-03-25T03:52:23.426Z,2.17
2019-03-25T03:54:53.786Z,1.73
2019-03-25T03:57:24.933Z,1.47
2019-03-25T03:59:55.499Z,1.63
2019-03-25T04:02:25.656Z,1.83
2019-03-25T04:04:55.812Z,2.17
2019-03-25T04:07:25.978Z,1.90
2019-03-25T04:09:56.112Z,2.07
2019-03-25T04:12:26.264Z,1.90
2019-03-25T04:14:56.405Z,1.63
2019-03-25T04:17:26.609Z,1.77
2019-03-25T04:19:56.736Z,2.10
2019-03-25T04:22:26.905Z,1.83
2019-03-25T04:24:57.046Z,2.13
2019-03-25T04:27:27.220Z,1.87
2019-03-25T04:29:57.396Z,2.20
2019-03-25T04:32:27.564Z,2.33
2019-03-25T04:34:57.732Z,1.77
2019-03-25T04:37:27.868Z,1.87
2019-03-25T04:39:58.036Z,1.97
2019-03-25T04:42:28.218Z,2.30
2019-03-25T04:44:58.354Z,1.90
2019-03-25T04:47:28.497Z,2.00
2019-03-25T04:49:58.661Z,2.47
2019-03-25T04:52:28.839Z,2.20
2019-03-25T04:54:59.016Z,1.70
2019-03-25T04:57:29.153Z,1.80
2019-03-25T04:59:59.331Z,1.70
2019-03-25T05:02:29.474Z,2.43
2019-03-25T05:04:59.661Z,2.27
2019-03-25T05:07:29.817Z,2.07
2019-03-25T05:09:59.979Z,1.93
2019-03-25T05:12:30.155Z,2.43
2019-03-25T05:15:00.348Z,2.10
2019-03-25T05:17:30.410Z,1.90
2019-03-25T05:20:00.546Z,1.90
2019-03-25T05:22:30.690Z,2.13
2019-03-25T05:25:00.826Z,1.40
2019-03-25T05:27:30.973Z,2.10
2019-03-25T05:30:01.103Z,1.90
2019-03-25T05:32:31.214Z,2.20
2019-03-25T05:35:01.367Z,2.20
2019-03-25T05:37:31.503Z,2.03
2019-03-25T05:40:01.638Z,2.03
2019-03-25T05:42:31.780Z,2.00
2019-03-25T05:45:01.922Z,1.80
2019-03-25T05:47:32.064Z,1.93
2019-03-25T05:50:02.187Z,2.27
2019-03-25T05:52:32.307Z,1.73
2019-03-25T05:55:02.473Z,2.00
2019-03-25T05:57:32.625Z,2.00
2019-03-25T06:00:02.794Z,1.83
2019-03-25T06:02:32.933Z,2.27
2019-03-25T06:05:03.080Z,1.83
2019-03-25T06:07:33.196Z,1.57
2019-03-25T06:10:03.318Z,1.83
2019-03-25T06:12:33.443Z,1.83
2019-03-25T06:15:03.814Z,1.70
2019-03-25T06:17:33.947Z,1.37
2019-03-25T06:20:04.207Z,1.60
2019-03-25T06:22:34.338Z,1.70
2019-03-25T06:25:04.477Z,1.53
2019-03-25T06:27:34.591Z,1.70
2019-03-25T06:30:04.994Z,1.73
2019-03-25T06:32:35.134Z,1.60
2019-03-25T06:35:05.433Z,1.37
2019-03-25T06:37:35.566Z,1.80
2019-03-25T06:40:06.419Z,1.53
2019-03-25T06:42:36.572Z,1.90
2019-03-25T06:45:07.529Z,1.63
2019-03-25T06:47:37.692Z,1.90
2019-03-25T06:50:08.454Z,1.77
2019-03-25T06:52:38.626Z,1.50
2019-03-25T06:55:09.490Z,1.50
2019-03-25T06:57:39.655Z,1.70
2019-03-25T07:00:10.361Z,1.47
2019-03-25T07:02:40.490Z,1.97
2019-03-25T07:05:11.058Z,1.80
2019-03-25T07:07:41.242Z,1.57
2019-03-25T07:10:11.655Z,1.33
2019-03-25T07:12:41.790Z,1.40
2019-03-25T07:15:12.114Z,1.60
2019-03-25T07:17:42.247Z,1.73
2019-03-25T07:20:12.613Z,1.53
2019-03-25T07:22:42.755Z,1.60
2019-03-25T07:25:12.900Z,1.37
2019-03-25T07:27:43.021Z,1.40
2019-03-25T07:30:13.245Z,1.80
2019-03-25T07:32:43.382Z,1.53
2019-03-25T07:35:13.624Z,1.60
2019-03-25T07:37:43.756Z,1.13
2019-03-25T07:40:13.991Z,1.50
2019-03-25T07:42:44.145Z,2.23
2019-03-25T07:45:14.464Z,1.50
2019-03-25T07:47:44.604Z,1.50
2019-03-25T07:50:15.028Z,1.40
2019-03-25T07:52:45.185Z,1.80
2019-03-25T07:55:15.447Z,1.70
2019-03-25T07:57:48.568Z,1.70
2019-03-25T08:00:17.650Z,1.90
2019-03-25T08:02:47.779Z,1.57
2019-03-25T08:05:17.924Z,2.00
2019-03-25T08:07:48.026Z,1.50
2019-03-25T08:10:31.079Z,1.40
2019-03-25T08:13:01.289Z,1.60
2019-03-25T08:15:31.591Z,1.40
2019-03-25T08:18:01.920Z,1.50
2019-03-25T08:20:32.056Z,1.40
2019-03-25T08:23:02.258Z,1.73
2019-03-25T08:25:32.432Z,1.70
2019-03-25T08:28:02.640Z,1.13
2019-03-25T08:30:32.747Z,1.53
2019-03-25T08:33:02.858Z,1.40
2019-03-25T08:35:33.132Z,1.97
2019-03-25T08:38:03.274Z,1.63
2019-03-25T08:40:33.411Z,1.50
2019-03-25T08:43:03.546Z,1.80
2019-03-25T08:45:33.702Z,1.50
2019-03-25T08:48:03.896Z,1.60
2019-03-25T08:50:34.072Z,1.33
2019-03-25T08:53:04.294Z,1.20
2019-03-25T08:55:34.459Z,1.60
2019-03-25T08:58:12.062Z,1.90
2019-03-25T09:00:36.469Z,1.20
2019-03-25T09:03:06.605Z,1.30
2019-03-25T09:05:36.757Z,1.27
2019-03-25T09:08:06.909Z,1.50
2019-03-25T09:10:37.066Z,1.40
2019-03-25T09:13:07.199Z,1.93
2019-03-25T09:15:37.380Z,1.10
2019-03-25T09:18:07.525Z,1.00
2019-03-25T09:20:37.771Z,1.30
2019-03-25T09:23:07.898Z,1.00
2019-03-25T09:25:38.056Z,1.00
2019-03-25T09:28:08.184Z,1.33
2019-03-25T09:31:12.738Z,1.10
2019-03-25T09:33:43.143Z,1.20
2019-03-25T09:36:13.282Z,1.20
2019-03-25T09:38:43.542Z,1.10
2019-03-25T09:41:13.685Z,1.20
2019-03-25T09:43:43.926Z,0.97
2019-03-25T09:46:14.182Z,1.03
2019-03-25T09:48:44.708Z,1.40
2019-03-25T09:51:14.844Z,1.43
2019-03-25T09:53:45.034Z,1.03
2019-03-25T09:56:16.193Z,1.00
2019-03-25T09:58:46.326Z,1.30
2019-03-25T10:01:16.675Z,2.03
2019-03-25T10:03:46.814Z,1.40
2019-03-25T10:06:16.968Z,0.97
2019-03-25T10:08:47.123Z,1.50
2019-03-25T10:11:17.246Z,1.10
2019-03-25T10:13:47.363Z,1.07
2019-03-25T10:16:17.598Z,1.00
2019-03-25T10:18:47.747Z,1.07
2019-03-25T10:21:17.859Z,1.30
2019-03-25T10:23:48.324Z,1.03
2019-03-25T10:26:18.592Z,1.10
2019-03-25T10:28:49.310Z,0.90
2019-03-25T10:31:19.484Z,1.10
2019-03-25T10:33:49.615Z,1.10
2019-03-25T10:36:19.753Z,1.00
2019-03-25T10:38:49.911Z,1.10
2019-03-25T10:41:20.054Z,0.90
2019-03-25T10:43:50.190Z,1.20
2019-03-25T10:46:20.307Z,1.33
2019-03-25T10:48:50.451Z,1.00
2019-03-25T10:51:20.593Z,1.07
2019-03-25T10:53:50.750Z,1.10
2019-03-25T10:56:20.921Z,1.40
2019-03-25T10:58:57.978Z,1.00
2019-03-25T11:01:22.854Z,1.00
2019-03-25T11:03:53.011Z,0.80
2019-03-25T11:06:23.150Z,0.67
2019-03-25T11:08:53.289Z,1.30
2019-03-25T11:11:23.427Z,0.90
2019-03-25T11:13:53.581Z,1.03
2019-03-25T11:16:23.712Z,1.10
2019-03-25T11:18:53.842Z,1.05
2019-03-25T11:21:23.968Z,0.85
2019-03-25T11:23:54.122Z,0.90
2019-03-25T11:26:24.271Z,1.00
2019-03-25T11:28:54.442Z,1.02
2019-03-25T11:31:24.592Z,1.00
2019-03-25T11:33:54.734Z,0.65
2019-03-25T11:36:24.849Z,0.50
2019-03-25T11:38:54.997Z,0.70
2019-03-25T11:41:25.152Z,0.80
2019-03-25T11:43:55.334Z,0.80
2019-03-25T11:46:25.475Z,0.72
2019-03-25T11:48:55.603Z,0.90
2019-03-25T11:51:25.754Z,0.60
2019-03-25T11:53:55.880Z,0.60
2019-03-25T11:56:26.021Z,0.88
2019-03-25T11:58:56.159Z,1.00
2019-03-25T12:01:26.298Z,0.80
2019-03-25T12:03:56.428Z,0.80
2019-03-25T12:06:26.597Z,0.93
2019-03-25T12:08:56.732Z,1.07
2019-03-25T12:11:26.875Z,1.07
2019-03-25T12:13:57.017Z,1.00
2019-03-25T12:16:27.179Z,0.90
2019-03-25T12:18:57.351Z,0.80
2019-03-25T12:21:27.503Z,0.70
2019-03-25T12:23:57.638Z,0.90
2019-03-25T12:26:27.826Z,0.72
2019-03-25T12:28:57.976Z,0.80
2019-03-25T12:31:28.175Z,0.90
2019-03-25T12:33:58.483Z,0.70
2019-03-25T12:36:28.681Z,0.70
2019-03-25T12:38:58.822Z,1.20
2019-03-25T12:41:28.989Z,0.70
2019-03-25T12:43:59.173Z,1.00
2019-03-25T12:46:29.418Z,1.00
2019-03-25T12:48:59.586Z,1.27
2019-03-25T12:51:29.734Z,1.00
2019-03-25T12:53:59.961Z,0.90
2019-03-25T12:56:30.121Z,0.80
2019-03-25T12:59:00.259Z,0.93
2019-03-25T13:01:30.457Z,0.78
2019-03-25T13:04:00.633Z,1.00
2019-03-25T13:06:30.825Z,1.00
2019-03-25T13:09:01.022Z,0.98
2019-03-25T13:11:31.204Z,0.70
2019-03-25T13:14:01.382Z,0.80
2019-03-25T13:16:31.569Z,0.80
2019-03-25T13:19:01.722Z,0.68
2019-03-25T13:21:31.895Z,0.78
2019-03-25T13:24:02.075Z,0.70
2019-03-25T13:26:32.259Z,1.15
2019-03-25T13:29:02.726Z,0.85
2019-03-25T13:31:32.910Z,1.00
2019-03-25T13:34:03.080Z,0.88
2019-03-25T13:36:33.220Z,0.80
2019-03-25T13:39:04.207Z,1.00
2019-03-25T13:41:34.341Z,0.90
2019-03-25T13:44:04.508Z,1.20
2019-03-25T13:46:34.682Z,0.85
2019-03-25T13:49:04.832Z,0.70
2019-03-25T13:51:34.989Z,0.70
2019-03-25T13:54:06.937Z,1.00
2019-03-25T13:56:36.918Z,1.40
2019-03-25T13:59:07.076Z,0.80
2019-03-25T14:01:37.185Z,0.80
2019-03-25T14:04:07.349Z,0.77
2019-03-25T14:06:37.492Z,0.67
2019-03-25T14:09:08.453Z,1.10
2019-03-25T14:11:38.589Z,1.07
2019-03-25T14:14:08.736Z,0.80
2019-03-25T14:16:38.873Z,0.47
2019-03-25T14:19:09.056Z,0.70
2019-03-25T14:21:39.205Z,0.57
2019-03-25T14:24:09.410Z,0.60
2019-03-25T14:26:39.532Z,0.70
2019-03-25T14:29:09.708Z,0.87
2019-03-25T14:31:39.840Z,0.77
2019-03-25T14:34:10.009Z,0.60
2019-03-25T14:36:40.218Z,0.60
2019-03-25T14:39:10.431Z,0.90
2019-03-25T14:41:40.606Z,0.77
2019-03-25T14:44:10.761Z,0.73
2019-03-25T14:46:40.942Z,0.70
2019-03-25T14:49:11.127Z,0.93
2019-03-25T14:51:41.271Z,0.40
2019-03-25T14:54:11.464Z,0.50
2019-03-25T14:56:41.634Z,0.83
2019-03-25T14:59:11.810Z,0.70
2019-03-25T15:01:41.949Z,0.70
2019-03-25T15:04:12.120Z,0.50
2019-03-25T15:06:42.295Z,0.60
2019-03-25T15:09:12.502Z,0.80
2019-03-25T15:11:42.797Z,0.60
2019-03-25T15:14:12.968Z,0.80
2019-03-25T15:16:43.090Z,0.80
2019-03-25T15:19:13.263Z,0.70
2019-03-25T15:21:43.529Z,0.73
2019-03-25T15:24:13.701Z,0.70
2019-03-25T15:26:43.882Z,0.50
2019-03-25T15:29:14.038Z,0.50
2019-03-25T15:31:44.201Z,0.67
2019-03-25T15:34:14.383Z,0.60
2019-03-25T15:36:44.565Z,0.63
2019-03-25T15:39:14.738Z,0.60
2019-03-25T15:41:47.121Z,0.70
2019-03-25T15:44:16.711Z,0.80
2019-03-25T15:46:55.389Z,0.60
2019-03-25T15:49:18.711Z,0.60
2019-03-25T15:51:48.886Z,0.60
2019-03-25T15:54:19.053Z,0.60
2019-03-25T15:56:49.242Z,0.70
2019-03-25T15:59:19.411Z,0.80
2019-03-25T16:01:49.520Z,0.63
2019-03-25T16:04:19.667Z,0.90
2019-03-25T16:06:49.809Z,0.73
2019-03-25T16:09:19.938Z,0.60
2019-03-25T16:11:50.082Z,0.67
2019-03-25T16:14:20.199Z,0.50
2019-03-25T16:16:50.333Z,0.80
2019-03-25T16:19:20.434Z,0.90
2019-03-25T16:21:50.574Z,0.73
2019-03-25T16:24:20.703Z,1.40
2019-03-25T16:26:50.850Z,0.70
2019-03-25T16:29:20.975Z,0.90
2019-03-25T16:31:51.109Z,0.90
2019-03-25T16:34:21.260Z,1.00
2019-03-25T16:36:51.427Z,0.80
2019-03-25T16:39:21.551Z,0.50
2019-03-25T16:41:51.699Z,0.60
2019-03-25T16:44:21.836Z,0.90
2019-03-25T16:46:51.961Z,0.70
2019-03-25T16:49:22.125Z,0.60
2019-03-25T16:51:52.257Z,0.70
2019-03-25T16:54:22.402Z,0.97
2019-03-25T16:56:52.593Z,0.70
2019-03-25T16:59:22.755Z,1.10
2019-03-25T17:01:52.908Z,0.80
2019-03-25T17:04:23.020Z,0.60
2019-03-25T17:06:53.174Z,0.80
2019-03-25T17:09:23.336Z,0.67
2019-03-25T17:11:53.468Z,0.80
2019-03-25T17:14:23.641Z,0.90
2019-03-25T17:16:53.778Z,0.90
2019-03-25T17:19:23.938Z,1.07
2019-03-25T17:21:58.392Z,1.60
2019-03-25T17:24:25.861Z,1.10
2019-03-25T17:26:56.015Z,1.57
2019-03-25T17:29:26.170Z,0.80
2019-03-25T17:31:56.319Z,1.27
2019-03-25T17:34:26.490Z,1.27
2019-03-25T17:36:56.641Z,0.93
2019-03-25T17:39:26.807Z,1.00
2019-03-25T17:41:56.941Z,1.43
2019-03-25T17:44:27.100Z,1.27
2019-03-25T17:46:57.247Z,1.30
2019-03-25T17:49:27.420Z,1.00
2019-03-25T17:51:57.558Z,0.70
2019-03-25T17:54:27.695Z,0.97
2019-03-25T17:56:57.845Z,0.90
2019-03-25T17:59:28.024Z,0.70
2019-03-25T18:01:58.199Z,0.77
2019-03-25T18:04:28.340Z,0.93
2019-03-25T18:06:58.493Z,0.80
2019-03-25T18:09:28.641Z,0.73
2019-03-25T18:11:58.810Z,0.90
2019-03-25T18:14:28.962Z,0.90
2019-03-25T18:16:59.079Z,0.83
2019-03-25T18:19:29.217Z,0.77
2019-03-25T18:21:59.358Z,0.70
2019-03-25T18:24:29.512Z,0.80
2019-03-25T18:26:59.672Z,0.70
2019-03-25T18:29:29.817Z,0.87
2019-03-25T18:32:00.013Z,0.70
2019-03-25T18:34:30.151Z,0.77
2019-03-25T18:37:00.314Z,1.00
2019-03-25T18:39:30.438Z,0.80
2019-03-25T18:42:00.612Z,1.10
2019-03-25T18:44:30.735Z,1.00
2019-03-25T18:47:00.949Z,1.07
2019-03-25T18:49:31.113Z,0.90
2019-03-25T18:52:01.281Z,1.00
2019-03-25T18:54:31.430Z,0.87
2019-03-25T18:57:01.652Z,0.90
2019-03-25T18:59:31.737Z,1.12
2019-03-25T19:02:01.916Z,0.90
2019-03-25T19:04:32.047Z,0.63
2019-03-25T19:07:02.829Z,0.80
2019-03-25T19:09:32.992Z,0.93
2019-03-25T19:12:03.138Z,0.90
2019-03-25T19:14:33.311Z,0.90
2019-03-25T19:17:05.416Z,1.03
2019-03-25T19:19:35.349Z,0.70
2019-03-25T19:22:05.623Z,1.00
2019-03-25T19:24:35.767Z,1.27
2019-03-25T19:27:06.022Z,1.30
2019-03-25T19:29:36.196Z,1.03
2019-03-25T19:32:07.155Z,1.23
2019-03-25T19:34:37.520Z,0.73
2019-03-25T19:37:07.707Z,1.27
2019-03-25T19:39:37.862Z,1.03
2019-03-25T19:42:08.018Z,1.10
2019-03-25T19:44:38.147Z,0.70
2019-03-25T19:47:08.297Z,0.93
2019-03-25T19:49:38.485Z,1.70
2019-03-25T19:52:09.572Z,2.20
2019-03-25T19:54:39.798Z,2.00
2019-03-25T19:57:09.940Z,1.33
2019-03-25T19:59:40.519Z,0.90
2019-03-25T20:02:18.885Z,1.00
2019-03-25T20:04:42.453Z,0.90
2019-03-25T20:07:12.618Z,1.70
2019-03-25T20:09:42.800Z,1.10
2019-03-25T20:12:13.023Z,1.30
2019-03-25T20:14:43.161Z,1.00
2019-03-25T20:17:13.310Z,0.90
2019-03-25T20:19:43.477Z,1.17
2019-03-25T20:22:13.671Z,1.47
2019-03-25T20:24:43.851Z,1.20
2019-03-25T20:27:14.046Z,1.00
2019-03-25T20:29:44.139Z,1.00
2019-03-25T20:32:14.289Z,1.70
2019-03-25T20:34:44.462Z,0.90
2019-03-25T20:37:14.644Z,0.70
2019-03-25T20:39:44.835Z,0.87
2019-03-25T20:42:14.965Z,0.97
2019-03-25T20:44:45.174Z,1.20
2019-03-25T20:47:15.351Z,1.10
2019-03-25T20:49:45.491Z,1.27
2019-03-25T20:52:15.632Z,1.00
2019-03-25T20:54:45.827Z,0.67
2019-03-25T20:57:15.942Z,1.03
2019-03-25T20:59:46.046Z,1.00
2019-03-25T21:02:18.808Z,2.20
2019-03-25T21:04:48.957Z,1.20
2019-03-25T21:07:19.100Z,1.13
2019-03-25T21:10:00.450Z,0.60
2019-03-25T21:12:30.690Z,0.73
2019-03-25T21:15:00.786Z,0.67
2019-03-25T21:17:31.016Z,0.80
2019-03-25T21:20:01.103Z,0.90
2019-03-25T21:22:31.421Z,0.80
2019-03-25T21:25:01.643Z,0.80
2019-03-25T21:27:31.821Z,0.70
2019-03-25T21:30:02.108Z,0.70
2019-03-25T21:32:32.337Z,0.90
2019-03-25T21:35:02.532Z,0.80
2019-03-25T21:37:32.735Z,0.80
2019-03-25T21:40:02.995Z,0.77
2019-03-25T21:42:33.057Z,0.83
2019-03-25T21:45:03.254Z,0.80
2019-03-25T21:47:33.347Z,0.80
2019-03-25T21:50:03.469Z,1.00
2019-03-25T21:52:33.791Z,0.70
2019-03-25T21:55:03.956Z,1.10
2019-03-25T21:57:34.105Z,0.80
2019-03-25T22:00:04.479Z,0.90
2019-03-25T22:02:34.660Z,0.80
2019-03-25T22:05:05.049Z,0.70
2019-03-25T22:07:35.247Z,0.90
2019-03-25T22:10:06.494Z,0.80
2019-03-25T22:12:36.680Z,0.90
2019-03-25T22:15:09.933Z,0.77
2019-03-25T22:17:40.290Z,0.77
2019-03-25T22:20:11.427Z,0.80
2019-03-25T22:22:42.532Z,0.90
2019-03-25T22:25:12.862Z,0.97
2019-03-25T22:27:43.063Z,0.90
2019-03-25T22:30:13.459Z,0.70
2019-03-25T22:32:43.636Z,0.70
2019-03-25T22:35:13.923Z,0.80
2019-03-25T22:37:44.102Z,0.70
2019-03-25T22:40:14.380Z,0.77
2019-03-25T22:42:44.608Z,0.67
2019-03-25T22:45:16.190Z,0.70
2019-03-25T22:47:46.393Z,0.70
2019-03-25T22:50:27.949Z,0.90
2019-03-25T22:52:58.515Z,0.93
2019-03-25T22:55:28.717Z,1.00
2019-03-25T22:57:58.944Z,1.10
2019-03-25T23:00:40.860Z,1.00
2019-03-25T23:03:11.136Z,0.80
2019-03-25T23:05:41.324Z,0.50
2019-03-25T23:08:11.516Z,0.63
2019-03-25T23:10:41.878Z,0.70
2019-03-25T23:13:12.033Z,0.70
2019-03-25T23:15:42.241Z,0.60
2019-03-25T23:18:12.434Z,0.90
2019-03-25T23:20:42.583Z,0.60
2019-03-25T23:23:12.767Z,0.60
2019-03-25T23:25:42.969Z,0.50
2019-03-25T23:28:13.150Z,0.50
2019-03-25T23:30:43.282Z,0.70
2019-03-25T23:33:13.475Z,0.80
2019-03-25T23:35:43.656Z,0.60
2019-03-25T23:38:13.815Z,0.80
2019-03-25T23:40:43.978Z,0.60
2019-03-25T23:43:14.145Z,0.63
2019-03-25T23:45:44.672Z,0.70
2019-03-25T23:48:14.857Z,0.70
2019-03-25T23:50:45.022Z,0.50
2019-03-25T23:53:15.204Z,0.50
2019-03-25T23:55:45.363Z,0.60
2019-03-25T23:58:15.524Z,0.80
